sensor_id;sensor_type;location;lat;lon;timestamp;temperature;humidity
53422;DHT22;39319;52.944;5.928;2023-06-26T00:01:23;24.80;91.80
53422;DHT22;39319;52.944;5.928;2023-06-26T00:03:49;24.80;91.70
53422;DHT22;39319;52.944;5.928;2023-06-26T00:06:15;24.70;91.70
53422;DHT22;39319;52.944;5.928;2023-06-26T00:08:43;24.70;91.80
53422;DHT22;39319;52.944;5.928;2023-06-26T00:11:09;24.70;91.70
53422;DHT22;39319;52.944;5.928;2023-06-26T00:13:34;24.70;91.80
53422;DHT22;39319;52.944;5.928;2023-06-26T00:16:00;24.60;91.90
53422;DHT22;39319;52.944;5.928;2023-06-26T00:18:28;24.60;91.90
53422;DHT22;39319;52.944;5.928;2023-06-26T00:20:54;24.60;91.80
53422;DHT22;39319;52.944;5.928;2023-06-26T00:23:20;24.60;91.80
53422;DHT22;39319;52.944;5.928;2023-06-26T00:25:46;24.70;91.90
53422;DHT22;39319;52.944;5.928;2023-06-26T00:28:11;24.60;91.90
53422;DHT22;39319;52.944;5.928;2023-06-26T00:30:37;24.60;91.80
53422;DHT22;39319;52.944;5.928;2023-06-26T00:33:03;24.60;91.70
53422;DHT22;39319;52.944;5.928;2023-06-26T00:35:29;24.60;91.80
53422;DHT22;39319;52.944;5.928;2023-06-26T00:37:54;24.60;91.80
53422;DHT22;39319;52.944;5.928;2023-06-26T00:40:20;24.60;91.90
53422;DHT22;39319;52.944;5.928;2023-06-26T00:42:46;24.60;91.90
53422;DHT22;39319;52.944;5.928;2023-06-26T00:45:12;24.60;92.00
53422;DHT22;39319;52.944;5.928;2023-06-26T00:47:37;24.50;92.00
53422;DHT22;39319;52.944;5.928;2023-06-26T00:50:04;24.50;92.10
53422;DHT22;39319;52.944;5.928;2023-06-26T00:52:31;24.50;91.90
53422;DHT22;39319;52.944;5.928;2023-06-26T00:54:57;24.50;92.00
53422;DHT22;39319;52.944;5.928;2023-06-26T00:57:23;24.50;92.10
53422;DHT22;39319;52.944;5.928;2023-06-26T00:59:49;24.50;92.10
53422;DHT22;39319;52.944;5.928;2023-06-26T01:02:16;24.50;92.10
53422;DHT22;39319;52.944;5.928;2023-06-26T01:04:49;24.40;92.00
53422;DHT22;39319;52.944;5.928;2023-06-26T01:07:19;24.40;92.10
53422;DHT22;39319;52.944;5.928;2023-06-26T01:09:48;24.40;92.20
53422;DHT22;39319;52.944;5.928;2023-06-26T01:12:15;24.40;92.30
53422;DHT22;39319;52.944;5.928;2023-06-26T01:14:41;24.40;92.20
53422;DHT22;39319;52.944;5.928;2023-06-26T01:17:08;24.30;92.30
53422;DHT22;39319;52.944;5.928;2023-06-26T01:19:37;24.30;92.20
53422;DHT22;39319;52.944;5.928;2023-06-26T01:24:47;24.30;92.40
53422;DHT22;39319;52.944;5.928;2023-06-26T01:27:19;24.30;92.30
53422;DHT22;39319;52.944;5.928;2023-06-26T01:29:49;24.20;92.60
53422;DHT22;39319;52.944;5.928;2023-06-26T01:32:15;24.20;92.50
53422;DHT22;39319;52.944;5.928;2023-06-26T01:34:42;24.20;92.50
53422;DHT22;39319;52.944;5.928;2023-06-26T01:37:09;24.20;92.60
53422;DHT22;39319;52.944;5.928;2023-06-26T01:39:34;24.10;92.80
53422;DHT22;39319;52.944;5.928;2023-06-26T01:42:03;24.10;92.80
53422;DHT22;39319;52.944;5.928;2023-06-26T01:44:29;24.20;92.80
53422;DHT22;39319;52.944;5.928;2023-06-26T01:47:03;24.10;92.70
53422;DHT22;39319;52.944;5.928;2023-06-26T01:49:53;24.10;92.80
53422;DHT22;39319;52.944;5.928;2023-06-26T01:52:35;24.10;92.90
53422;DHT22;39319;52.944;5.928;2023-06-26T01:55:20;24.10;93.00
53422;DHT22;39319;52.944;5.928;2023-06-26T01:57:47;24.10;93.00
53422;DHT22;39319;52.944;5.928;2023-06-26T02:00:18;24.10;93.00
53422;DHT22;39319;52.944;5.928;2023-06-26T02:02:44;24.10;93.10
53422;DHT22;39319;52.944;5.928;2023-06-26T02:05:12;24.10;93.10
53422;DHT22;39319;52.944;5.928;2023-06-26T02:07:38;24.10;93.00
53422;DHT22;39319;52.944;5.928;2023-06-26T02:10:04;24.10;93.00
53422;DHT22;39319;52.944;5.928;2023-06-26T02:12:30;24.10;92.90
53422;DHT22;39319;52.944;5.928;2023-06-26T02:14:56;24.10;93.10
53422;DHT22;39319;52.944;5.928;2023-06-26T02:17:21;24.10;93.20
53422;DHT22;39319;52.944;5.928;2023-06-26T02:19:47;24.10;93.20
53422;DHT22;39319;52.944;5.928;2023-06-26T02:22:16;24.10;93.20
53422;DHT22;39319;52.944;5.928;2023-06-26T02:24:47;24.10;93.20
53422;DHT22;39319;52.944;5.928;2023-06-26T02:27:13;24.10;93.00
53422;DHT22;39319;52.944;5.928;2023-06-26T02:29:40;24.10;93.20
53422;DHT22;39319;52.944;5.928;2023-06-26T02:32:06;24.10;93.10
53422;DHT22;39319;52.944;5.928;2023-06-26T02:34:32;24.20;93.10
53422;DHT22;39319;52.944;5.928;2023-06-26T02:36:58;24.20;93.20
53422;DHT22;39319;52.944;5.928;2023-06-26T02:39:28;24.20;92.90
53422;DHT22;39319;52.944;5.928;2023-06-26T02:41:54;24.30;92.60
53422;DHT22;39319;52.944;5.928;2023-06-26T02:44:20;24.40;92.30
53422;DHT22;39319;52.944;5.928;2023-06-26T02:46:46;24.40;92.40
53422;DHT22;39319;52.944;5.928;2023-06-26T02:49:12;24.40;92.30
53422;DHT22;39319;52.944;5.928;2023-06-26T02:51:38;24.40;92.20
53422;DHT22;39319;52.944;5.928;2023-06-26T02:54:03;24.40;92.00
53422;DHT22;39319;52.944;5.928;2023-06-26T02:56:29;24.50;92.00
53422;DHT22;39319;52.944;5.928;2023-06-26T02:58:55;24.50;91.90
53422;DHT22;39319;52.944;5.928;2023-06-26T03:01:21;24.40;92.10
53422;DHT22;39319;52.944;5.928;2023-06-26T03:03:47;24.40;92.20
53422;DHT22;39319;52.944;5.928;2023-06-26T03:06:14;24.40;92.20
53422;DHT22;39319;52.944;5.928;2023-06-26T03:08:40;24.40;92.40
53422;DHT22;39319;52.944;5.928;2023-06-26T03:11:06;24.40;92.50
53422;DHT22;39319;52.944;5.928;2023-06-26T03:13:33;24.40;92.50
53422;DHT22;39319;52.944;5.928;2023-06-26T03:15:59;24.40;92.50
53422;DHT22;39319;52.944;5.928;2023-06-26T03:18:25;24.40;92.50
53422;DHT22;39319;52.944;5.928;2023-06-26T03:20:52;24.40;92.60
53422;DHT22;39319;52.944;5.928;2023-06-26T03:23:20;24.30;92.80
53422;DHT22;39319;52.944;5.928;2023-06-26T03:25:46;24.30;92.90
53422;DHT22;39319;52.944;5.928;2023-06-26T03:28:12;24.30;93.00
53422;DHT22;39319;52.944;5.928;2023-06-26T03:30:37;24.30;93.20
53422;DHT22;39319;52.944;5.928;2023-06-26T03:33:03;24.20;93.30
53422;DHT22;39319;52.944;5.928;2023-06-26T03:35:29;24.20;93.40
53422;DHT22;39319;52.944;5.928;2023-06-26T03:37:55;24.30;93.40
53422;DHT22;39319;52.944;5.928;2023-06-26T03:40:20;24.20;93.60
53422;DHT22;39319;52.944;5.928;2023-06-26T03:42:46;24.20;93.60
53422;DHT22;39319;52.944;5.928;2023-06-26T03:45:12;24.20;93.60
53422;DHT22;39319;52.944;5.928;2023-06-26T03:47:37;24.20;93.70
53422;DHT22;39319;52.944;5.928;2023-06-26T03:50:05;24.00;93.80
53422;DHT22;39319;52.944;5.928;2023-06-26T03:52:31;24.10;93.80
53422;DHT22;39319;52.944;5.928;2023-06-26T03:55:00;24.00;93.90
53422;DHT22;39319;52.944;5.928;2023-06-26T03:57:26;23.90;94.10
53422;DHT22;39319;52.944;5.928;2023-06-26T03:59:52;23.90;94.30
53422;DHT22;39319;52.944;5.928;2023-06-26T04:02:21;23.90;94.30
53422;DHT22;39319;52.944;5.928;2023-06-26T04:04:46;23.80;94.30
53422;DHT22;39319;52.944;5.928;2023-06-26T04:07:12;23.80;94.10
53422;DHT22;39319;52.944;5.928;2023-06-26T04:09:38;23.90;93.80
53422;DHT22;39319;52.944;5.928;2023-06-26T04:12:04;23.80;93.80
53422;DHT22;39319;52.944;5.928;2023-06-26T04:14:30;23.80;93.50
53422;DHT22;39319;52.944;5.928;2023-06-26T04:16:55;23.70;93.80
53422;DHT22;39319;52.944;5.928;2023-06-26T04:19:23;23.70;93.70
53422;DHT22;39319;52.944;5.928;2023-06-26T04:21:49;23.70;94.10
53422;DHT22;39319;52.944;5.928;2023-06-26T04:24:14;23.60;94.00
53422;DHT22;39319;52.944;5.928;2023-06-26T04:26:42;23.60;94.30
53422;DHT22;39319;52.944;5.928;2023-06-26T04:29:09;23.60;94.20
53422;DHT22;39319;52.944;5.928;2023-06-26T04:31:35;23.60;94.30
53422;DHT22;39319;52.944;5.928;2023-06-26T04:34:00;23.60;94.50
53422;DHT22;39319;52.944;5.928;2023-06-26T04:36:26;23.60;94.60
53422;DHT22;39319;52.944;5.928;2023-06-26T04:38:55;23.60;94.60
53422;DHT22;39319;52.944;5.928;2023-06-26T04:41:26;23.60;94.70
53422;DHT22;39319;52.944;5.928;2023-06-26T04:43:52;23.60;94.70
53422;DHT22;39319;52.944;5.928;2023-06-26T04:46:18;23.60;94.90
53422;DHT22;39319;52.944;5.928;2023-06-26T04:48:44;23.50;94.90
53422;DHT22;39319;52.944;5.928;2023-06-26T04:51:11;23.50;95.00
53422;DHT22;39319;52.944;5.928;2023-06-26T04:53:37;23.50;94.80
53422;DHT22;39319;52.944;5.928;2023-06-26T04:56:03;23.50;94.90
53422;DHT22;39319;52.944;5.928;2023-06-26T04:58:30;23.50;94.80
53422;DHT22;39319;52.944;5.928;2023-06-26T05:00:56;23.40;95.00
53422;DHT22;39319;52.944;5.928;2023-06-26T05:03:22;23.30;95.20
53422;DHT22;39319;52.944;5.928;2023-06-26T05:05:48;23.30;95.00
53422;DHT22;39319;52.944;5.928;2023-06-26T05:10:43;23.30;94.40
53422;DHT22;39319;52.944;5.928;2023-06-26T05:13:09;23.20;94.40
53422;DHT22;39319;52.944;5.928;2023-06-26T05:15:35;23.10;94.10
53422;DHT22;39319;52.944;5.928;2023-06-26T05:18:00;23.10;94.00
53422;DHT22;39319;52.944;5.928;2023-06-26T05:20:26;23.10;93.80
53422;DHT22;39319;52.944;5.928;2023-06-26T05:22:52;23.10;93.60
53422;DHT22;39319;52.944;5.928;2023-06-26T05:25:18;23.10;93.80
53422;DHT22;39319;52.944;5.928;2023-06-26T05:27:47;23.00;93.60
53422;DHT22;39319;52.944;5.928;2023-06-26T05:30:13;23.00;93.30
53422;DHT22;39319;52.944;5.928;2023-06-26T05:32:40;23.00;93.60
53422;DHT22;39319;52.944;5.928;2023-06-26T05:35:07;22.90;93.30
53422;DHT22;39319;52.944;5.928;2023-06-26T05:37:33;23.00;93.00
53422;DHT22;39319;52.944;5.928;2023-06-26T05:40:00;22.90;92.90
53422;DHT22;39319;52.944;5.928;2023-06-26T05:42:27;23.00;92.70
53422;DHT22;39319;52.944;5.928;2023-06-26T05:44:53;23.00;92.80
53422;DHT22;39319;52.944;5.928;2023-06-26T05:47:19;23.00;92.80
53422;DHT22;39319;52.944;5.928;2023-06-26T05:49:45;23.00;92.50
53422;DHT22;39319;52.944;5.928;2023-06-26T05:52:11;23.10;92.50
53422;DHT22;39319;52.944;5.928;2023-06-26T05:54:37;23.10;92.40
53422;DHT22;39319;52.944;5.928;2023-06-26T05:57:03;23.10;92.50
53422;DHT22;39319;52.944;5.928;2023-06-26T05:59:31;23.10;92.50
53422;DHT22;39319;52.944;5.928;2023-06-26T06:01:57;23.10;92.40
53422;DHT22;39319;52.944;5.928;2023-06-26T06:04:23;23.10;92.60
53422;DHT22;39319;52.944;5.928;2023-06-26T06:06:49;23.10;92.40
53422;DHT22;39319;52.944;5.928;2023-06-26T06:09:15;23.10;92.40
53422;DHT22;39319;52.944;5.928;2023-06-26T06:11:41;23.10;92.20
53422;DHT22;39319;52.944;5.928;2023-06-26T06:14:07;23.00;92.30
53422;DHT22;39319;52.944;5.928;2023-06-26T06:16:32;23.00;92.10
53422;DHT22;39319;52.944;5.928;2023-06-26T06:18:58;23.10;91.90
53422;DHT22;39319;52.944;5.928;2023-06-26T06:21:24;23.10;91.30
53422;DHT22;39319;52.944;5.928;2023-06-26T06:23:50;23.10;91.40
53422;DHT22;39319;52.944;5.928;2023-06-26T06:26:15;23.00;91.30
53422;DHT22;39319;52.944;5.928;2023-06-26T06:28:41;23.00;91.10
53422;DHT22;39319;52.944;5.928;2023-06-26T06:31:07;23.10;91.40
53422;DHT22;39319;52.944;5.928;2023-06-26T06:33:33;23.00;91.50
53422;DHT22;39319;52.944;5.928;2023-06-26T06:35:59;23.00;91.10
53422;DHT22;39319;52.944;5.928;2023-06-26T06:38:25;23.00;90.50
53422;DHT22;39319;52.944;5.928;2023-06-26T06:40:51;23.00;90.60
53422;DHT22;39319;52.944;5.928;2023-06-26T06:43:16;23.10;90.30
53422;DHT22;39319;52.944;5.928;2023-06-26T06:45:42;23.10;90.10
53422;DHT22;39319;52.944;5.928;2023-06-26T06:48:08;23.20;90.00
53422;DHT22;39319;52.944;5.928;2023-06-26T06:50:34;23.10;90.10
53422;DHT22;39319;52.944;5.928;2023-06-26T06:52:59;23.10;89.90
53422;DHT22;39319;52.944;5.928;2023-06-26T06:55:25;23.10;89.20
53422;DHT22;39319;52.944;5.928;2023-06-26T06:57:51;23.10;88.40
53422;DHT22;39319;52.944;5.928;2023-06-26T07:00:17;23.10;88.40
53422;DHT22;39319;52.944;5.928;2023-06-26T07:02:44;23.20;88.60
53422;DHT22;39319;52.944;5.928;2023-06-26T07:05:11;23.20;88.00
53422;DHT22;39319;52.944;5.928;2023-06-26T07:07:37;23.20;87.90
53422;DHT22;39319;52.944;5.928;2023-06-26T07:10:11;23.20;88.20
53422;DHT22;39319;52.944;5.928;2023-06-26T07:12:37;23.20;89.10
53422;DHT22;39319;52.944;5.928;2023-06-26T07:15:04;23.20;89.80
53422;DHT22;39319;52.944;5.928;2023-06-26T07:17:34;23.20;89.40
53422;DHT22;39319;52.944;5.928;2023-06-26T07:20:01;23.30;90.20
53422;DHT22;39319;52.944;5.928;2023-06-26T07:22:29;23.30;89.40
53422;DHT22;39319;52.944;5.928;2023-06-26T07:24:55;23.40;89.30
53422;DHT22;39319;52.944;5.928;2023-06-26T07:27:20;23.30;89.20
53422;DHT22;39319;52.944;5.928;2023-06-26T07:29:46;23.40;89.00
53422;DHT22;39319;52.944;5.928;2023-06-26T07:32:12;23.40;89.60
53422;DHT22;39319;52.944;5.928;2023-06-26T07:34:40;23.50;90.00
53422;DHT22;39319;52.944;5.928;2023-06-26T07:37:06;23.50;90.20
53422;DHT22;39319;52.944;5.928;2023-06-26T07:39:32;23.60;90.20
53422;DHT22;39319;52.944;5.928;2023-06-26T07:41:58;23.50;90.30
53422;DHT22;39319;52.944;5.928;2023-06-26T07:44:25;23.50;90.80
53422;DHT22;39319;52.944;5.928;2023-06-26T07:46:53;23.60;90.20
53422;DHT22;39319;52.944;5.928;2023-06-26T07:49:18;23.70;90.10
53422;DHT22;39319;52.944;5.928;2023-06-26T07:51:44;23.70;88.70
53422;DHT22;39319;52.944;5.928;2023-06-26T07:54:10;23.70;88.60
53422;DHT22;39319;52.944;5.928;2023-06-26T07:57:02;23.70;89.00
53422;DHT22;39319;52.944;5.928;2023-06-26T07:59:29;23.70;89.80
53422;DHT22;39319;52.944;5.928;2023-06-26T08:01:56;23.70;89.70
53422;DHT22;39319;52.944;5.928;2023-06-26T08:04:26;23.80;89.50
53422;DHT22;39319;52.944;5.928;2023-06-26T08:06:53;23.90;90.00
53422;DHT22;39319;52.944;5.928;2023-06-26T08:09:20;23.90;90.20
53422;DHT22;39319;52.944;5.928;2023-06-26T08:11:47;23.90;89.60
53422;DHT22;39319;52.944;5.928;2023-06-26T08:14:15;23.80;89.80
53422;DHT22;39319;52.944;5.928;2023-06-26T08:16:42;24.00;90.10
53422;DHT22;39319;52.944;5.928;2023-06-26T08:19:09;24.00;89.30
53422;DHT22;39319;52.944;5.928;2023-06-26T08:21:35;23.90;89.00
53422;DHT22;39319;52.944;5.928;2023-06-26T08:24:01;23.90;89.20
53422;DHT22;39319;52.944;5.928;2023-06-26T08:26:29;23.80;89.60
53422;DHT22;39319;52.944;5.928;2023-06-26T08:28:55;23.80;88.00
53422;DHT22;39319;52.944;5.928;2023-06-26T08:31:21;23.90;88.60
53422;DHT22;39319;52.944;5.928;2023-06-26T08:33:47;24.00;88.50
53422;DHT22;39319;52.944;5.928;2023-06-26T08:36:13;24.00;88.20
53422;DHT22;39319;52.944;5.928;2023-06-26T08:38:39;24.10;87.60
53422;DHT22;39319;52.944;5.928;2023-06-26T08:41:08;24.20;86.80
53422;DHT22;39319;52.944;5.928;2023-06-26T08:43:34;24.20;87.20
53422;DHT22;39319;52.944;5.928;2023-06-26T08:46:01;24.30;87.20
53422;DHT22;39319;52.944;5.928;2023-06-26T08:48:32;24.30;86.30
53422;DHT22;39319;52.944;5.928;2023-06-26T08:51:01;24.40;85.90
53422;DHT22;39319;52.944;5.928;2023-06-26T08:53:50;24.40;86.50
53422;DHT22;39319;52.944;5.928;2023-06-26T08:56:17;24.40;87.10
53422;DHT22;39319;52.944;5.928;2023-06-26T08:58:46;24.50;86.40
53422;DHT22;39319;52.944;5.928;2023-06-26T09:01:13;24.50;87.20
53422;DHT22;39319;52.944;5.928;2023-06-26T09:03:38;24.50;86.60
53422;DHT22;39319;52.944;5.928;2023-06-26T09:06:04;24.50;85.60
53422;DHT22;39319;52.944;5.928;2023-06-26T09:08:30;24.60;86.10
53422;DHT22;39319;52.944;5.928;2023-06-26T09:10:56;24.60;85.50
53422;DHT22;39319;52.944;5.928;2023-06-26T09:13:21;24.70;85.60
53422;DHT22;39319;52.944;5.928;2023-06-26T09:15:47;24.80;86.70
53422;DHT22;39319;52.944;5.928;2023-06-26T09:18:13;25.00;85.10
53422;DHT22;39319;52.944;5.928;2023-06-26T09:20:42;24.90;84.60
53422;DHT22;39319;52.944;5.928;2023-06-26T09:23:08;24.90;85.20
53422;DHT22;39319;52.944;5.928;2023-06-26T09:25:38;24.90;86.10
53422;DHT22;39319;52.944;5.928;2023-06-26T09:28:05;25.00;85.50
53422;DHT22;39319;52.944;5.928;2023-06-26T09:30:32;24.90;85.30
53422;DHT22;39319;52.944;5.928;2023-06-26T09:33:13;25.10;85.00
53422;DHT22;39319;52.944;5.928;2023-06-26T09:35:39;25.20;85.20
53422;DHT22;39319;52.944;5.928;2023-06-26T09:38:05;25.20;84.80
53422;DHT22;39319;52.944;5.928;2023-06-26T09:40:31;25.40;84.30
53422;DHT22;39319;52.944;5.928;2023-06-26T09:43:03;25.50;83.10
53422;DHT22;39319;52.944;5.928;2023-06-26T09:45:32;25.60;82.90
53422;DHT22;39319;52.944;5.928;2023-06-26T09:48:00;25.70;82.70
53422;DHT22;39319;52.944;5.928;2023-06-26T09:50:28;25.90;81.90
53422;DHT22;39319;52.944;5.928;2023-06-26T09:52:55;26.00;81.00
53422;DHT22;39319;52.944;5.928;2023-06-26T09:55:21;26.10;80.70
53422;DHT22;39319;52.944;5.928;2023-06-26T09:57:49;25.90;80.90
53422;DHT22;39319;52.944;5.928;2023-06-26T10:00:15;25.80;81.10
53422;DHT22;39319;52.944;5.928;2023-06-26T10:02:41;25.70;80.00
53422;DHT22;39319;52.944;5.928;2023-06-26T10:05:07;25.50;79.30
53422;DHT22;39319;52.944;5.928;2023-06-26T10:07:34;25.50;80.20
53422;DHT22;39319;52.944;5.928;2023-06-26T10:10:02;25.50;80.70
53422;DHT22;39319;52.944;5.928;2023-06-26T10:12:32;25.60;82.00
53422;DHT22;39319;52.944;5.928;2023-06-26T10:14:59;25.80;80.90
53422;DHT22;39319;52.944;5.928;2023-06-26T10:17:28;25.90;80.20
53422;DHT22;39319;52.944;5.928;2023-06-26T10:19:58;26.00;79.70
53422;DHT22;39319;52.944;5.928;2023-06-26T10:22:29;26.10;80.70
53422;DHT22;39319;52.944;5.928;2023-06-26T10:24:58;26.30;79.90
53422;DHT22;39319;52.944;5.928;2023-06-26T10:27:28;26.20;80.00
53422;DHT22;39319;52.944;5.928;2023-06-26T10:29:59;26.30;80.10
53422;DHT22;39319;52.944;5.928;2023-06-26T10:32:26;26.30;79.60
53422;DHT22;39319;52.944;5.928;2023-06-26T10:34:53;26.10;80.10
53422;DHT22;39319;52.944;5.928;2023-06-26T10:37:20;26.10;79.20
53422;DHT22;39319;52.944;5.928;2023-06-26T10:39:50;26.20;78.60
53422;DHT22;39319;52.944;5.928;2023-06-26T10:42:17;26.10;78.80
53422;DHT22;39319;52.944;5.928;2023-06-26T10:44:45;26.20;77.40
53422;DHT22;39319;52.944;5.928;2023-06-26T10:47:30;26.20;76.50
53422;DHT22;39319;52.944;5.928;2023-06-26T10:49:57;26.40;78.80
53422;DHT22;39319;52.944;5.928;2023-06-26T10:52:26;26.40;79.70
53422;DHT22;39319;52.944;5.928;2023-06-26T10:54:54;26.50;79.30
53422;DHT22;39319;52.944;5.928;2023-06-26T10:57:25;26.70;78.50
53422;DHT22;39319;52.944;5.928;2023-06-26T11:00:14;26.90;76.50
53422;DHT22;39319;52.944;5.928;2023-06-26T11:02:50;26.80;75.00
53422;DHT22;39319;52.944;5.928;2023-06-26T11:05:27;26.80;76.20
53422;DHT22;39319;52.944;5.928;2023-06-26T11:08:09;26.70;75.70
53422;DHT22;39319;52.944;5.928;2023-06-26T11:10:52;26.60;74.20
53422;DHT22;39319;52.944;5.928;2023-06-26T11:13:19;26.60;73.50
53422;DHT22;39319;52.944;5.928;2023-06-26T11:15:49;26.70;74.10
53422;DHT22;39319;52.944;5.928;2023-06-26T11:18:16;26.70;72.60
53422;DHT22;39319;52.944;5.928;2023-06-26T11:20:42;26.60;73.80
53422;DHT22;39319;52.944;5.928;2023-06-26T11:23:08;26.60;72.60
53422;DHT22;39319;52.944;5.928;2023-06-26T11:25:36;26.70;71.80
53422;DHT22;39319;52.944;5.928;2023-06-26T11:28:03;26.80;72.30
53422;DHT22;39319;52.944;5.928;2023-06-26T11:30:29;26.90;70.70
53422;DHT22;39319;52.944;5.928;2023-06-26T11:33:11;27.00;70.00
53422;DHT22;39319;52.944;5.928;2023-06-26T11:35:39;27.00;70.20
53422;DHT22;39319;52.944;5.928;2023-06-26T11:38:06;27.00;71.20
53422;DHT22;39319;52.944;5.928;2023-06-26T11:40:36;27.20;72.40
53422;DHT22;39319;52.944;5.928;2023-06-26T11:43:03;27.30;71.70
53422;DHT22;39319;52.944;5.928;2023-06-26T11:45:32;27.50;70.20
53422;DHT22;39319;52.944;5.928;2023-06-26T11:47:58;27.40;71.50
53422;DHT22;39319;52.944;5.928;2023-06-26T11:50:25;27.50;71.30
53422;DHT22;39319;52.944;5.928;2023-06-26T11:52:58;27.40;69.70
53422;DHT22;39319;52.944;5.928;2023-06-26T11:55:25;27.40;70.00
53422;DHT22;39319;52.944;5.928;2023-06-26T11:57:55;27.30;70.60
53422;DHT22;39319;52.944;5.928;2023-06-26T12:00:22;27.30;69.80
53422;DHT22;39319;52.944;5.928;2023-06-26T12:02:48;27.10;70.60
53422;DHT22;39319;52.944;5.928;2023-06-26T12:05:18;27.10;71.80
53422;DHT22;39319;52.944;5.928;2023-06-26T12:07:46;27.10;72.30
53422;DHT22;39319;52.944;5.928;2023-06-26T12:10:13;27.10;71.60
53422;DHT22;39319;52.944;5.928;2023-06-26T12:12:41;27.10;72.40
53422;DHT22;39319;52.944;5.928;2023-06-26T12:15:08;27.00;70.90
53422;DHT22;39319;52.944;5.928;2023-06-26T12:17:38;27.10;70.50
53422;DHT22;39319;52.944;5.928;2023-06-26T12:20:21;27.10;72.60
53422;DHT22;39319;52.944;5.928;2023-06-26T12:22:48;27.30;71.40
53422;DHT22;39319;52.944;5.928;2023-06-26T12:25:14;27.10;72.00
53422;DHT22;39319;52.944;5.928;2023-06-26T12:27:40;27.00;73.40
53422;DHT22;39319;52.944;5.928;2023-06-26T12:30:06;26.80;73.10
53422;DHT22;39319;52.944;5.928;2023-06-26T12:32:32;26.70;73.60
53422;DHT22;39319;52.944;5.928;2023-06-26T12:35:00;26.50;74.10
53422;DHT22;39319;52.944;5.928;2023-06-26T12:37:26;26.50;73.90
53422;DHT22;39319;52.944;5.928;2023-06-26T12:39:57;26.40;72.80
53422;DHT22;39319;52.944;5.928;2023-06-26T12:42:27;26.40;72.70
53422;DHT22;39319;52.944;5.928;2023-06-26T12:44:54;26.30;73.20
53422;DHT22;39319;52.944;5.928;2023-06-26T12:47:27;26.30;72.80
53422;DHT22;39319;52.944;5.928;2023-06-26T12:49:53;26.30;72.80
53422;DHT22;39319;52.944;5.928;2023-06-26T12:52:20;25.20;72.60
53422;DHT22;39319;52.944;5.928;2023-06-26T12:54:47;26.10;73.40
53422;DHT22;39319;52.944;5.928;2023-06-26T12:57:16;26.20;73.40
53422;DHT22;39319;52.944;5.928;2023-06-26T12:59:43;26.10;73.70
53422;DHT22;39319;52.944;5.928;2023-06-26T13:02:09;26.00;74.10
53422;DHT22;39319;52.944;5.928;2023-06-26T13:04:37;25.90;74.40
53422;DHT22;39319;52.944;5.928;2023-06-26T13:07:05;25.90;75.40
53422;DHT22;39319;52.944;5.928;2023-06-26T13:09:32;26.00;75.20
53422;DHT22;39319;52.944;5.928;2023-06-26T13:12:00;26.10;74.40
53422;DHT22;39319;52.944;5.928;2023-06-26T13:14:26;26.00;73.90
53422;DHT22;39319;52.944;5.928;2023-06-26T13:16:51;26.00;74.70
53422;DHT22;39319;52.944;5.928;2023-06-26T13:19:17;26.00;73.90
53422;DHT22;39319;52.944;5.928;2023-06-26T13:21:43;26.10;74.20
53422;DHT22;39319;52.944;5.928;2023-06-26T13:24:09;26.00;73.90
53422;DHT22;39319;52.944;5.928;2023-06-26T13:26:35;26.00;74.00
53422;DHT22;39319;52.944;5.928;2023-06-26T13:29:01;25.90;73.00
53422;DHT22;39319;52.944;5.928;2023-06-26T13:31:27;26.10;74.10
53422;DHT22;39319;52.944;5.928;2023-06-26T13:33:53;25.60;74.40
53422;DHT22;39319;52.944;5.928;2023-06-26T13:36:19;25.60;74.10
53422;DHT22;39319;52.944;5.928;2023-06-26T13:38:46;25.70;74.30
53422;DHT22;39319;52.944;5.928;2023-06-26T13:41:14;25.60;74.20
53422;DHT22;39319;52.944;5.928;2023-06-26T13:43:40;25.70;72.70
53422;DHT22;39319;52.944;5.928;2023-06-26T13:46:07;25.60;73.10
53422;DHT22;39319;52.944;5.928;2023-06-26T13:48:32;25.70;72.30
53422;DHT22;39319;52.944;5.928;2023-06-26T13:50:59;25.70;73.10
53422;DHT22;39319;52.944;5.928;2023-06-26T13:53:25;25.70;74.30
53422;DHT22;39319;52.944;5.928;2023-06-26T13:55:50;25.90;72.90
53422;DHT22;39319;52.944;5.928;2023-06-26T13:58:16;26.00;72.60
53422;DHT22;39319;52.944;5.928;2023-06-26T14:00:42;26.20;71.80
53422;DHT22;39319;52.944;5.928;2023-06-26T14:03:10;26.10;71.70
53422;DHT22;39319;52.944;5.928;2023-06-26T14:05:36;26.20;71.60
53422;DHT22;39319;52.944;5.928;2023-06-26T14:08:04;25.20;72.00
53422;DHT22;39319;52.944;5.928;2023-06-26T14:10:30;26.10;72.30
53422;DHT22;39319;52.944;5.928;2023-06-26T14:12:56;26.10;72.20
53422;DHT22;39319;52.944;5.928;2023-06-26T14:15:22;26.10;71.50
53422;DHT22;39319;52.944;5.928;2023-06-26T14:17:48;26.30;70.70
53422;DHT22;39319;52.944;5.928;2023-06-26T14:20:16;26.10;70.30
53422;DHT22;39319;52.944;5.928;2023-06-26T14:22:43;26.10;70.70
53422;DHT22;39319;52.944;5.928;2023-06-26T14:25:13;26.10;71.10
53422;DHT22;39319;52.944;5.928;2023-06-26T14:27:39;25.90;72.00
53422;DHT22;39319;52.944;5.928;2023-06-26T14:30:06;25.80;71.50
53422;DHT22;39319;52.944;5.928;2023-06-26T14:32:33;25.70;71.30
53422;DHT22;39319;52.944;5.928;2023-06-26T14:34:59;25.50;71.90
53422;DHT22;39319;52.944;5.928;2023-06-26T14:37:25;25.50;72.00
53422;DHT22;39319;52.944;5.928;2023-06-26T14:39:51;25.50;71.80
53422;DHT22;39319;52.944;5.928;2023-06-26T14:42:17;25.50;71.10
53422;DHT22;39319;52.944;5.928;2023-06-26T14:44:43;25.50;72.50
53422;DHT22;39319;52.944;5.928;2023-06-26T14:47:12;25.70;72.50
53422;DHT22;39319;52.944;5.928;2023-06-26T14:49:39;25.80;72.30
53422;DHT22;39319;52.944;5.928;2023-06-26T14:52:05;25.80;72.80
53422;DHT22;39319;52.944;5.928;2023-06-26T14:54:31;25.80;72.30
53422;DHT22;39319;52.944;5.928;2023-06-26T14:56:58;25.80;72.50
53422;DHT22;39319;52.944;5.928;2023-06-26T14:59:24;26.10;70.10
53422;DHT22;39319;52.944;5.928;2023-06-26T15:01:49;26.00;70.00
53422;DHT22;39319;52.944;5.928;2023-06-26T15:04:15;26.10;70.50
53422;DHT22;39319;52.944;5.928;2023-06-26T15:06:41;26.10;70.60
53422;DHT22;39319;52.944;5.928;2023-06-26T15:09:07;26.20;70.90
53422;DHT22;39319;52.944;5.928;2023-06-26T15:11:34;26.40;69.90
53422;DHT22;39319;52.944;5.928;2023-06-26T15:14:01;26.30;70.80
53422;DHT22;39319;52.944;5.928;2023-06-26T15:16:27;26.30;69.70
53422;DHT22;39319;52.944;5.928;2023-06-26T15:18:52;26.20;69.80
53422;DHT22;39319;52.944;5.928;2023-06-26T15:21:18;26.20;69.30
53422;DHT22;39319;52.944;5.928;2023-06-26T15:23:47;26.20;70.20
53422;DHT22;39319;52.944;5.928;2023-06-26T15:26:13;26.30;68.90
53422;DHT22;39319;52.944;5.928;2023-06-26T15:28:39;26.30;68.50
53422;DHT22;39319;52.944;5.928;2023-06-26T15:31:05;26.40;68.60
53422;DHT22;39319;52.944;5.928;2023-06-26T15:33:31;26.40;67.80
53422;DHT22;39319;52.944;5.928;2023-06-26T15:35:57;26.20;68.60